sensor_id;sensor_type;location;lat;lon;timestamp;pressure;altitude;pressure_sealevel;temperature;humidity
44751;BME280;30477;48.224;11.470;2023-04-29T00:02:17;95760.81;;;10.60;85.93
44751;BME280;30477;48.224;11.470;2023-04-29T00:04:45;95761.78;;;10.59;86.26
44751;BME280;30477;48.224;11.470;2023-04-29T00:07:10;95751.78;;;10.64;86.15
44751;BME280;30477;48.224;11.470;2023-04-29T00:09:39;95750.47;;;10.60;86.11
44751;BME280;30477;48.224;11.470;2023-04-29T00:12:04;95759.69;;;10.62;86.32
44751;BME280;30477;48.224;11.470;2023-04-29T00:14:30;95751.78;;;10.64;86.20
44751;BME280;30477;48.224;11.470;2023-04-29T00:16:55;95749.78;;;10.57;86.19
44751;BME280;30477;48.224;11.470;2023-04-29T00:19:21;95745.28;;;10.60;86.38
44751;BME280;30477;48.224;11.470;2023-04-29T00:21:46;95739.44;;;10.57;85.72
44751;BME280;30477;48.224;11.470;2023-04-29T00:24:11;95738.78;;;10.55;85.90
44751;BME280;30477;48.224;11.470;2023-04-29T00:26:37;95737.16;;;10.54;85.92
44751;BME280;30477;48.224;11.470;2023-04-29T00:29:02;95732.00;;;10.54;85.93
44751;BME280;30477;48.224;11.470;2023-04-29T00:31:27;95737.44;;;10.51;85.67
44751;BME280;30477;48.224;11.470;2023-04-29T00:33:53;95737.44;;;10.51;85.92
44751;BME280;30477;48.224;11.470;2023-04-29T00:36:18;95745.06;;;10.53;85.94
44751;BME280;30477;48.224;11.470;2023-04-29T00:38:44;95742.47;;;10.53;85.83
44751;BME280;30477;48.224;11.470;2023-04-29T00:41:09;95743.94;;;10.55;85.98
44751;BME280;30477;48.224;11.470;2023-04-29T00:43:35;95738.78;;;10.55;85.87
44751;BME280;30477;48.224;11.470;2023-04-29T00:46:00;95738.78;;;10.55;86.15
44751;BME280;30477;48.224;11.470;2023-04-29T00:48:25;95751.44;;;10.59;86.15
44751;BME280;30477;48.224;11.470;2023-04-29T00:50:51;95732.78;;;10.55;86.19
44751;BME280;30477;48.224;11.470;2023-04-29T00:53:17;95736.34;;;10.54;86.22
44751;BME280;30477;48.224;11.470;2023-04-29T00:55:43;95728.75;;;10.52;85.86
44751;BME280;30477;48.224;11.470;2023-04-29T00:58:10;95727.09;;;10.51;85.77
44751;BME280;30477;48.224;11.470;2023-04-29T01:00:36;95728.88;;;10.51;85.85
44751;BME280;30477;48.224;11.470;2023-04-29T01:03:04;95725.97;;;10.54;86.20
44751;BME280;30477;48.224;11.470;2023-04-29T01:05:29;95733.06;;;10.52;85.81
44751;BME280;30477;48.224;11.470;2023-04-29T01:08:04;95729.00;;;10.49;85.98
44751;BME280;30477;48.224;11.470;2023-04-29T01:10:38;95728.53;;;10.46;86.05
44751;BME280;30477;48.224;11.470;2023-04-29T01:16:02;95727.69;;;10.45;86.23
44751;BME280;30477;48.224;11.470;2023-04-29T01:18:32;95735.16;;;10.48;86.13
44751;BME280;30477;48.224;11.470;2023-04-29T01:20:59;95722.38;;;10.47;86.32
44751;BME280;30477;48.224;11.470;2023-04-29T01:23:28;95725.09;;;10.45;86.46
44751;BME280;30477;48.224;11.470;2023-04-29T01:25:53;95729.19;;;10.48;86.52
44751;BME280;30477;48.224;11.470;2023-04-29T01:31:27;95727.09;;;10.51;86.31
44751;BME280;30477;48.224;11.470;2023-04-29T01:39:56;95722.44;;;10.55;86.22
44751;BME280;30477;48.224;11.470;2023-04-29T01:42:34;95736.34;;;10.54;86.16
44751;BME280;30477;48.224;11.470;2023-04-29T01:45:04;95731.31;;;10.52;86.32
44751;BME280;30477;48.224;11.470;2023-04-29T01:47:31;95735.53;;;10.53;86.25
44751;BME280;30477;48.224;11.470;2023-04-29T01:49:57;95735.53;;;10.53;86.56
44751;BME280;30477;48.224;11.470;2023-04-29T01:52:22;95721.91;;;10.51;86.24
44751;BME280;30477;48.224;11.470;2023-04-29T01:54:47;95726.81;;;10.54;86.62
44751;BME280;30477;48.224;11.470;2023-04-29T01:57:13;95721.66;;;10.54;86.61
44751;BME280;30477;48.224;11.470;2023-04-29T01:59:38;95725.19;;;10.53;86.62
44751;BME280;30477;48.224;11.470;2023-04-29T02:02:04;95735.53;;;10.53;86.67
44751;BME280;30477;48.224;11.470;2023-04-29T02:04:29;95722.44;;;10.55;86.50
44751;BME280;30477;48.224;11.470;2023-04-29T02:06:57;95715.50;;;10.55;86.89
44751;BME280;30477;48.224;11.470;2023-04-29T02:09:23;95727.31;;;10.58;86.66
44751;BME280;30477;48.224;11.470;2023-04-29T02:11:48;95720.66;;;10.55;86.73
44751;BME280;30477;48.224;11.470;2023-04-29T02:14:13;95724.91;;;10.56;87.03
44751;BME280;30477;48.224;11.470;2023-04-29T02:16:39;95725.19;;;10.53;86.91
44751;BME280;30477;48.224;11.470;2023-04-29T02:19:04;95724.38;;;10.53;86.78
44751;BME280;30477;48.224;11.470;2023-04-29T02:21:30;95728.06;;;10.50;86.71
44751;BME280;30477;48.224;11.470;2023-04-29T02:23:55;95728.75;;;10.52;87.02
44751;BME280;30477;48.224;11.470;2023-04-29T02:26:21;95730.34;;;10.53;87.10
44751;BME280;30477;48.224;11.470;2023-04-29T02:28:47;95731.47;;;10.51;87.03
44751;BME280;30477;48.224;11.470;2023-04-29T02:31:13;95735.31;;;10.47;87.01
44751;BME280;30477;48.224;11.470;2023-04-29T02:33:38;95732.84;;;10.45;87.09
44751;BME280;30477;48.224;11.470;2023-04-29T02:36:04;95726.06;;;10.44;87.08
44751;BME280;30477;48.224;11.470;2023-04-29T02:38:29;95734.06;;;10.51;87.09
44751;BME280;30477;48.224;11.470;2023-04-29T02:40:55;95735.16;;;10.48;87.16
44751;BME280;30477;48.224;11.470;2023-04-29T02:43:20;95736.13;;;10.47;87.27
44751;BME280;30477;48.224;11.470;2023-04-29T02:45:45;95732.44;;;10.50;87.31
44751;BME280;30477;48.224;11.470;2023-04-29T02:48:11;95734.72;;;10.53;87.47
44751;BME280;30477;48.224;11.470;2023-04-29T02:50:37;95734.59;;;10.54;87.66
44751;BME280;30477;48.224;11.470;2023-04-29T02:53:02;95734.94;;;10.60;87.60
44751;BME280;30477;48.224;11.470;2023-04-29T02:55:27;95738.06;;;10.63;87.64
44751;BME280;30477;48.224;11.470;2023-04-29T02:57:53;95728.50;;;10.64;87.70
44751;BME280;30477;48.224;11.470;2023-04-29T03:00:18;95739.84;;;10.63;87.88
44751;BME280;30477;48.224;11.470;2023-04-29T03:02:44;95742.13;;;10.66;87.84
44751;BME280;30477;48.224;11.470;2023-04-29T03:05:09;95736.78;;;10.67;88.08
44751;BME280;30477;48.224;11.470;2023-04-29T03:07:35;95737.31;;;10.71;88.21
44751;BME280;30477;48.224;11.470;2023-04-29T03:10:01;95740.53;;;10.73;88.14
44751;BME280;30477;48.224;11.470;2023-04-29T03:12:26;95734.41;;;10.74;88.19
44751;BME280;30477;48.224;11.470;2023-04-29T03:14:51;95732.50;;;10.76;88.39
44751;BME280;30477;48.224;11.470;2023-04-29T03:17:17;95733.31;;;10.76;88.52
44751;BME280;30477;48.224;11.470;2023-04-29T03:19:43;95735.88;;;10.76;88.38
44751;BME280;30477;48.224;11.470;2023-04-29T03:22:08;95739.28;;;10.77;88.28
44751;BME280;30477;48.224;11.470;2023-04-29T03:24:36;95732.78;;;10.73;88.45
44751;BME280;30477;48.224;11.470;2023-04-29T03:27:02;95730.72;;;10.76;88.43
44751;BME280;30477;48.224;11.470;2023-04-29T03:29:28;95723.94;;;10.75;88.58
44751;BME280;30477;48.224;11.470;2023-04-29T03:31:54;95736.56;;;10.79;88.57
44751;BME280;30477;48.224;11.470;2023-04-29T03:34:21;95727.97;;;10.78;88.71
44751;BME280;30477;48.224;11.470;2023-04-29T03:36:46;95727.19;;;10.77;88.77
44751;BME280;30477;48.224;11.470;2023-04-29T03:39:11;95729.09;;;10.75;88.78
44751;BME280;30477;48.224;11.470;2023-04-29T03:41:37;95733.44;;;10.75;88.79
44751;BME280;30477;48.224;11.470;2023-04-29T03:44:03;95728.25;;;10.75;88.64
44751;BME280;30477;48.224;11.470;2023-04-29T03:46:29;95733.75;;;10.72;88.85
44751;BME280;30477;48.224;11.470;2023-04-29T03:48:55;95738.94;;;10.72;88.60
44751;BME280;30477;48.224;11.470;2023-04-29T03:51:22;95726.50;;;10.75;88.86
44751;BME280;30477;48.224;11.470;2023-04-29T03:53:47;95736.03;;;10.75;88.79
44751;BME280;30477;48.224;11.470;2023-04-29T03:56:13;95738.94;;;10.72;88.49
44751;BME280;30477;48.224;11.470;2023-04-29T03:58:38;95733.75;;;10.72;88.83
44751;BME280;30477;48.224;11.470;2023-04-29T04:01:03;95733.75;;;10.72;88.82
44751;BME280;30477;48.224;11.470;2023-04-29T04:03:28;95738.94;;;10.72;88.59
44751;BME280;30477;48.224;11.470;2023-04-29T04:05:54;95730.19;;;10.73;88.73
44751;BME280;30477;48.224;11.470;2023-04-29T04:08:19;95729.38;;;10.72;88.57
44751;BME280;30477;48.224;11.470;2023-04-29T04:10:45;95737.16;;;10.72;88.95
44751;BME280;30477;48.224;11.470;2023-04-29T04:13:10;95740.25;;;10.76;88.61
44751;BME280;30477;48.224;11.470;2023-04-29T04:15:35;95742.72;;;10.77;88.90
44751;BME280;30477;48.224;11.470;2023-04-29T04:18:00;95740.13;;;10.77;88.70
44751;BME280;30477;48.224;11.470;2023-04-29T04:20:26;95737.38;;;10.79;88.84
44751;BME280;30477;48.224;11.470;2023-04-29T04:22:51;95747.44;;;10.82;88.84
44751;BME280;30477;48.224;11.470;2023-04-29T04:25:19;95740.34;;;10.84;88.71
44751;BME280;30477;48.224;11.470;2023-04-29T04:27:44;95747.78;;;10.87;88.59
44751;BME280;30477;48.224;11.470;2023-04-29T04:30:10;95755.28;;;10.90;88.84
44751;BME280;30477;48.224;11.470;2023-04-29T04:32:35;95749.94;;;10.92;88.56
44751;BME280;30477;48.224;11.470;2023-04-29T04:35:01;95751.25;;;10.96;88.84
44751;BME280;30477;48.224;11.470;2023-04-29T04:37:26;95758.28;;;11.04;88.78
44751;BME280;30477;48.224;11.470;2023-04-29T04:39:52;95762.84;;;11.10;88.81
44751;BME280;30477;48.224;11.470;2023-04-29T04:42:17;95763.53;;;11.12;88.71
44751;BME280;30477;48.224;11.470;2023-04-29T04:44:43;95756.94;;;11.17;88.36
44751;BME280;30477;48.224;11.470;2023-04-29T04:47:08;95766.63;;;11.15;88.31
44751;BME280;30477;48.224;11.470;2023-04-29T04:49:33;95762.66;;;11.29;88.65
44751;BME280;30477;48.224;11.470;2023-04-29T04:51:59;95762.97;;;11.52;88.80
44751;BME280;30477;48.224;11.470;2023-04-29T04:54:24;95761.66;;;11.74;88.57
44751;BME280;30477;48.224;11.470;2023-04-29T04:56:50;95763.97;;;11.86;88.13
44751;BME280;30477;48.224;11.470;2023-04-29T04:59:16;95763.38;;;11.92;87.58
44751;BME280;30477;48.224;11.470;2023-04-29T05:01:41;95760.81;;;12.00;87.37
44751;BME280;30477;48.224;11.470;2023-04-29T05:04:06;95764.75;;;12.12;87.46
44751;BME280;30477;48.224;11.470;2023-04-29T05:06:32;95771.78;;;12.20;86.77
44751;BME280;30477;48.224;11.470;2023-04-29T05:08:57;95769.69;;;12.32;86.47
44751;BME280;30477;48.224;11.470;2023-04-29T05:11:22;95772.00;;;12.43;86.28
44751;BME280;30477;48.224;11.470;2023-04-29T05:13:48;95775.91;;;12.55;85.77
44751;BME280;30477;48.224;11.470;2023-04-29T05:16:13;95776.25;;;12.69;85.73
44751;BME280;30477;48.224;11.470;2023-04-29T05:18:39;95780.50;;;12.86;85.15
44751;BME280;30477;48.224;11.470;2023-04-29T05:21:04;95779.06;;;13.00;84.72
44751;BME280;30477;48.224;11.470;2023-04-29T05:23:30;95775.97;;;13.05;84.35
44751;BME280;30477;48.224;11.470;2023-04-29T05:25:55;95780.19;;;13.14;84.11
44751;BME280;30477;48.224;11.470;2023-04-29T05:28:20;95789.28;;;13.26;83.85
44751;BME280;30477;48.224;11.470;2023-04-29T05:30:46;95790.44;;;13.40;83.47
44751;BME280;30477;48.224;11.470;2023-04-29T05:33:14;95796.94;;;13.44;82.92
44751;BME280;30477;48.224;11.470;2023-04-29T05:35:39;95792.88;;;13.33;82.63
44751;BME280;30477;48.224;11.470;2023-04-29T05:38:05;95804.53;;;13.05;82.47
44751;BME280;30477;48.224;11.470;2023-04-29T05:40:30;95806.44;;;12.78;82.52
44751;BME280;30477;48.224;11.470;2023-04-29T05:42:56;95811.47;;;12.63;82.76
44751;BME280;30477;48.224;11.470;2023-04-29T05:45:21;95809.31;;;12.50;83.11
44751;BME280;30477;48.224;11.470;2023-04-29T05:47:46;95820.00;;;12.47;83.47
44751;BME280;30477;48.224;11.470;2023-04-29T05:50:12;95822.28;;;12.50;83.85
44751;BME280;30477;48.224;11.470;2023-04-29T05:52:37;95815.00;;;12.46;84.18
44751;BME280;30477;48.224;11.470;2023-04-29T05:55:03;95820.66;;;12.49;84.23
44751;BME280;30477;48.224;11.470;2023-04-29T05:57:28;95821.31;;;12.51;84.67
44751;BME280;30477;48.224;11.470;2023-04-29T05:59:54;95833.16;;;12.46;84.85
44751;BME280;30477;48.224;11.470;2023-04-29T06:02:20;95825.53;;;12.44;84.80
44751;BME280;30477;48.224;11.470;2023-04-29T06:04:45;95828.44;;;12.41;85.19
44751;BME280;30477;48.224;11.470;2023-04-29T06:07:11;95832.03;;;12.48;85.61
44751;BME280;30477;48.224;11.470;2023-04-29T06:09:37;95835.28;;;12.50;85.48
44751;BME280;30477;48.224;11.470;2023-04-29T06:12:02;95831.69;;;12.51;85.82
44751;BME280;30477;48.224;11.470;2023-04-29T06:14:28;95838.84;;;12.57;85.95
44751;BME280;30477;48.224;11.470;2023-04-29T06:16:53;95838.53;;;12.52;85.84
44751;BME280;30477;48.224;11.470;2023-04-29T06:19:19;95854.13;;;12.61;85.98
44751;BME280;30477;48.224;11.470;2023-04-29T06:21:44;95844.41;;;12.63;86.16
44751;BME280;30477;48.224;11.470;2023-04-29T06:24:09;95844.59;;;12.69;86.44
44751;BME280;30477;48.224;11.470;2023-04-29T06:26:35;95843.19;;;13.16;86.37
44751;BME280;30477;48.224;11.470;2023-04-29T06:29:00;95845.13;;;13.06;86.22
44751;BME280;30477;48.224;11.470;2023-04-29T06:31:26;95851.97;;;13.07;86.16
44751;BME280;30477;48.224;11.470;2023-04-29T06:33:51;95856.53;;;13.13;86.17
44751;BME280;30477;48.224;11.470;2023-04-29T06:36:17;95851.34;;;13.37;86.20
44751;BME280;30477;48.224;11.470;2023-04-29T06:38:42;95851.69;;;13.75;86.49
44751;BME280;30477;48.224;11.470;2023-04-29T06:41:07;95853.44;;;14.39;86.25
44751;BME280;30477;48.224;11.470;2023-04-29T06:43:33;95848.38;;;14.85;85.50
44751;BME280;30477;48.224;11.470;2023-04-29T06:45:58;95851.28;;;15.36;84.42
44751;BME280;30477;48.224;11.470;2023-04-29T06:48:24;95842.78;;;15.80;83.10
44751;BME280;30477;48.224;11.470;2023-04-29T06:50:52;95848.56;;;15.91;81.82
44751;BME280;30477;48.224;11.470;2023-04-29T06:53:18;95847.91;;;15.74;79.13
44751;BME280;30477;48.224;11.470;2023-04-29T06:55:44;95850.25;;;15.46;78.55
44751;BME280;30477;48.224;11.470;2023-04-29T06:58:11;95854.06;;;15.96;78.79
44751;BME280;30477;48.224;11.470;2023-04-29T07:00:37;95850.03;;;16.38;76.89
44751;BME280;30477;48.224;11.470;2023-04-29T07:03:02;95854.50;;;15.85;75.51
44751;BME280;30477;48.224;11.470;2023-04-29T07:05:28;95847.38;;;15.78;75.08
44751;BME280;30477;48.224;11.470;2023-04-29T07:07:53;95860.97;;;15.89;75.36
44751;BME280;30477;48.224;11.470;2023-04-29T07:10:18;95855.50;;;15.83;74.08
44751;BME280;30477;48.224;11.470;2023-04-29T07:12:44;95847.22;;;15.57;74.24
44751;BME280;30477;48.224;11.470;2023-04-29T07:15:09;95860.44;;;15.32;74.11
44751;BME280;30477;48.224;11.470;2023-04-29T07:17:34;95852.56;;;15.17;74.54
44751;BME280;30477;48.224;11.470;2023-04-29T07:20:00;95861.97;;;15.27;74.92
44751;BME280;30477;48.224;11.470;2023-04-29T07:22:26;95853.41;;;15.56;75.40
44751;BME280;30477;48.224;11.470;2023-04-29T07:24:54;95859.81;;;15.68;74.51
44751;BME280;30477;48.224;11.470;2023-04-29T07:27:20;95851.38;;;15.66;74.43
44751;BME280;30477;48.224;11.470;2023-04-29T07:29:45;95855.59;;;16.05;74.81
44751;BME280;30477;48.224;11.470;2023-04-29T07:32:10;95852.41;;;16.54;73.62
44751;BME280;30477;48.224;11.470;2023-04-29T07:34:36;95851.31;;;16.93;72.48
44751;BME280;30477;48.224;11.470;2023-04-29T07:37:01;95857.28;;;16.72;71.32
44751;BME280;30477;48.224;11.470;2023-04-29T07:39:26;95860.25;;;16.54;70.81
44751;BME280;30477;48.224;11.470;2023-04-29T07:41:53;95862.94;;;16.91;70.89
44751;BME280;30477;48.224;11.470;2023-04-29T07:44:18;95860.41;;;16.97;69.44
44751;BME280;30477;48.224;11.470;2023-04-29T07:46:43;95864.22;;;16.50;69.18
44751;BME280;30477;48.224;11.470;2023-04-29T07:49:09;95866.22;;;16.18;69.27
44751;BME280;30477;48.224;11.470;2023-04-29T07:51:34;95857.78;;;17.19;70.49
44751;BME280;30477;48.224;11.470;2023-04-29T07:53:59;95861.84;;;17.64;68.26
44751;BME280;30477;48.224;11.470;2023-04-29T07:56:25;95866.44;;;17.84;67.66
44751;BME280;30477;48.224;11.470;2023-04-29T07:58:50;95858.25;;;17.72;66.84
44751;BME280;30477;48.224;11.470;2023-04-29T08:01:16;95860.53;;;18.03;65.76
44751;BME280;30477;48.224;11.470;2023-04-29T08:03:41;95856.41;;;18.57;65.04
44751;BME280;30477;48.224;11.470;2023-04-29T08:06:07;95859.88;;;19.26;63.35
44751;BME280;30477;48.224;11.470;2023-04-29T08:08:32;95862.13;;;19.69;61.88
44751;BME280;30477;48.224;11.470;2023-04-29T08:10:58;95854.97;;;20.43;60.88
44751;BME280;30477;48.224;11.470;2023-04-29T08:13:24;95856.63;;;20.89;57.57
44751;BME280;30477;48.224;11.470;2023-04-29T08:15:49;95859.00;;;20.52;57.36
44751;BME280;30477;48.224;11.470;2023-04-29T08:18:15;95854.47;;;19.87;57.71
44751;BME280;30477;48.224;11.470;2023-04-29T08:20:41;95852.41;;;20.88;58.67
44751;BME280;30477;48.224;11.470;2023-04-29T08:23:06;95846.72;;;20.98;57.09
44751;BME280;30477;48.224;11.470;2023-04-29T08:25:32;95849.09;;;20.41;55.78
44751;BME280;30477;48.224;11.470;2023-04-29T08:27:57;95852.66;;;19.81;58.33
44751;BME280;30477;48.224;11.470;2023-04-29T08:30:22;95850.22;;;20.00;59.06
44751;BME280;30477;48.224;11.470;2023-04-29T08:32:48;95851.22;;;20.12;58.08
44751;BME280;30477;48.224;11.470;2023-04-29T08:35:13;95855.25;;;19.41;58.32
44751;BME280;30477;48.224;11.470;2023-04-29T08:37:39;95850.06;;;18.80;58.31
44751;BME280;30477;48.224;11.470;2023-04-29T08:40:05;95852.25;;;18.35;59.56
44751;BME280;30477;48.224;11.470;2023-04-29T08:42:35;95854.59;;;17.88;60.32
44751;BME280;30477;48.224;11.470;2023-04-29T08:45:01;95863.28;;;17.45;61.19
44751;BME280;30477;48.224;11.470;2023-04-29T08:47:31;95853.63;;;17.24;61.58
44751;BME280;30477;48.224;11.470;2023-04-29T08:50:06;95855.78;;;17.64;61.80
44751;BME280;30477;48.224;11.470;2023-04-29T08:52:32;95850.59;;;19.30;60.72
44751;BME280;30477;48.224;11.470;2023-04-29T08:55:01;95853.69;;;19.80;57.06
44751;BME280;30477;48.224;11.470;2023-04-29T08:57:35;95847.63;;;20.72;55.21
44751;BME280;30477;48.224;11.470;2023-04-29T09:00:05;95841.50;;;21.16;54.86
44751;BME280;30477;48.224;11.470;2023-04-29T09:02:32;95834.94;;;22.33;53.08
44751;BME280;30477;48.224;11.470;2023-04-29T09:05:11;95832.41;;;22.19;50.84
44751;BME280;30477;48.224;11.470;2023-04-29T09:07:37;95842.59;;;22.16;50.79
44751;BME280;30477;48.224;11.470;2023-04-29T09:10:03;95845.25;;;21.91;50.65
44751;BME280;30477;48.224;11.470;2023-04-29T09:12:29;95842.72;;;21.52;48.63
44751;BME280;30477;48.224;11.470;2023-04-29T09:14:55;95839.00;;;20.96;50.47
44751;BME280;30477;48.224;11.470;2023-04-29T09:17:38;95849.09;;;20.54;51.44
44751;BME280;30477;48.224;11.470;2023-04-29T09:23:02;95841.44;;;20.91;52.85
44751;BME280;30477;48.224;11.470;2023-04-29T09:25:28;95834.22;;;20.80;50.61
44751;BME280;30477;48.224;11.470;2023-04-29T09:27:54;95837.53;;;20.68;49.28
44751;BME280;30477;48.224;11.470;2023-04-29T09:30:20;95836.63;;;20.88;49.72
44751;BME280;30477;48.224;11.470;2023-04-29T09:33:03;95827.69;;;20.89;49.42
44751;BME280;30477;48.224;11.470;2023-04-29T09:35:29;95838.22;;;20.89;48.92
44751;BME280;30477;48.224;11.470;2023-04-29T09:38:07;95833.81;;;20.83;49.15
44751;BME280;30477;48.224;11.470;2023-04-29T09:40:33;95824.03;;;20.52;49.39
44751;BME280;30477;48.224;11.470;2023-04-29T09:42:59;95839.25;;;20.23;50.49
44751;BME280;30477;48.224;11.470;2023-04-29T09:45:38;95854.03;;;20.17;51.32
44751;BME280;30477;48.224;11.470;2023-04-29T09:48:06;95841.56;;;20.71;51.77
44751;BME280;30477;48.224;11.470;2023-04-29T09:50:33;95851.53;;;21.01;52.04
44751;BME280;30477;48.224;11.470;2023-04-29T09:53:01;95859.47;;;20.29;51.86
44751;BME280;30477;48.224;11.470;2023-04-29T09:55:27;95856.03;;;20.28;52.69
44751;BME280;30477;48.224;11.470;2023-04-29T09:57:54;95856.00;;;20.42;52.30
44751;BME280;30477;48.224;11.470;2023-04-29T10:00:20;95853.13;;;20.63;52.54
44751;BME280;30477;48.224;11.470;2023-04-29T10:02:45;95857.78;;;20.48;52.22
44751;BME280;30477;48.224;11.470;2023-04-29T10:05:13;95859.06;;;20.25;52.76
44751;BME280;30477;48.224;11.470;2023-04-29T10:07:39;95861.47;;;20.34;53.35
44751;BME280;30477;48.224;11.470;2023-04-29T10:10:06;95860.88;;;20.32;53.25
44751;BME280;30477;48.224;11.470;2023-04-29T10:12:34;95857.03;;;20.27;52.88
44751;BME280;30477;48.224;11.470;2023-04-29T10:15:03;95853.25;;;19.90;53.18
44751;BME280;30477;48.224;11.470;2023-04-29T10:17:35;95851.84;;;19.67;53.17
44751;BME280;30477;48.224;11.470;2023-04-29T10:20:06;95861.66;;;19.19;54.80
44751;BME280;30477;48.224;11.470;2023-04-29T10:25:01;95851.41;;;19.37;55.81
44751;BME280;30477;48.224;11.470;2023-04-29T10:27:31;95845.34;;;19.37;56.06
44751;BME280;30477;48.224;11.470;2023-04-29T10:29:59;95845.53;;;19.48;55.09
44751;BME280;30477;48.224;11.470;2023-04-29T10:32:27;95846.94;;;19.31;53.89
44751;BME280;30477;48.224;11.470;2023-04-29T10:34:54;95851.78;;;19.27;54.19
44751;BME280;30477;48.224;11.470;2023-04-29T10:37:20;95858.03;;;19.20;53.90
44751;BME280;30477;48.224;11.470;2023-04-29T10:42:33;95869.09;;;19.09;54.45
44751;BME280;30477;48.224;11.470;2023-04-29T10:53:13;95848.31;;;19.00;52.73
44751;BME280;30477;48.224;11.470;2023-04-29T10:55:39;95850.53;;;19.03;52.92
44751;BME280;30477;48.224;11.470;2023-04-29T10:58:05;95838.03;;;19.12;52.00
44751;BME280;30477;48.224;11.470;2023-04-29T11:00:32;95841.63;;;18.98;52.75
44751;BME280;30477;48.224;11.470;2023-04-29T11:03:00;95839.13;;;18.76;52.59
44751;BME280;30477;48.224;11.470;2023-04-29T11:05:33;95834.13;;;18.81;52.46
44751;BME280;30477;48.224;11.470;2023-04-29T11:10:36;95835.09;;;18.74;51.18
44751;BME280;30477;48.224;11.470;2023-04-29T11:13:25;95841.84;;;18.48;51.21
44751;BME280;30477;48.224;11.470;2023-04-29T11:15:51;95848.88;;;18.48;51.66
44751;BME280;30477;48.224;11.470;2023-04-29T11:18:17;95830.63;;;18.67;51.25
44751;BME280;30477;48.224;11.470;2023-04-29T11:23:30;95835.44;;;18.57;50.44
44751;BME280;30477;48.224;11.470;2023-04-29T11:25:56;95836.66;;;18.61;50.52
44751;BME280;30477;48.224;11.470;2023-04-29T11:28:22;95843.94;;;18.66;50.63
44751;BME280;30477;48.224;11.470;2023-04-29T11:30:49;95833.94;;;18.83;50.75
44751;BME280;30477;48.224;11.470;2023-04-29T11:33:14;95840.81;;;18.84;50.46
44751;BME280;30477;48.224;11.470;2023-04-29T11:35:40;95846.34;;;18.67;49.44
44751;BME280;30477;48.224;11.470;2023-04-29T11:38:06;95843.78;;;18.33;50.31
44751;BME280;30477;48.224;11.470;2023-04-29T11:40:32;95843.47;;;18.56;50.69
44751;BME280;30477;48.224;11.470;2023-04-29T11:42:57;95845.50;;;18.60;50.52
44751;BME280;30477;48.224;11.470;2023-04-29T11:45:22;95841.00;;;18.82;50.75
44751;BME280;30477;48.224;11.470;2023-04-29T11:47:48;95850.41;;;18.70;50.24
44751;BME280;30477;48.224;11.470;2023-04-29T11:50:15;95856.03;;;18.67;49.39
44751;BME280;30477;48.224;11.470;2023-04-29T11:52:45;95854.03;;;18.69;49.90
44751;BME280;30477;48.224;11.470;2023-04-29T11:55:11;95856.56;;;18.56;49.45
44751;BME280;30477;48.224;11.470;2023-04-29T11:57:37;95858.25;;;18.63;49.44
44751;BME280;30477;48.224;11.470;2023-04-29T12:00:04;95848.97;;;18.67;48.78
44751;BME280;30477;48.224;11.470;2023-04-29T12:02:33;95861.22;;;18.60;49.17
44751;BME280;30477;48.224;11.470;2023-04-29T12:05:02;95861.22;;;18.60;48.89
44751;BME280;30477;48.224;11.470;2023-04-29T12:07:29;95859.63;;;18.59;49.22
44751;BME280;30477;48.224;11.470;2023-04-29T12:09:55;95860.84;;;18.63;49.42
44751;BME280;30477;48.224;11.470;2023-04-29T12:12:22;95862.88;;;18.61;49.80
44751;BME280;30477;48.224;11.470;2023-04-29T12:14:48;95853.72;;;18.44;49.93
44751;BME280;30477;48.224;11.470;2023-04-29T12:17:14;95858.09;;;18.37;50.31
44751;BME280;30477;48.224;11.470;2023-04-29T12:19:41;95861.75;;;18.36;50.02
44751;BME280;30477;48.224;11.470;2023-04-29T12:22:08;95861.59;;;18.44;50.81
44751;BME280;30477;48.224;11.470;2023-04-29T12:24:39;95858.03;;;18.58;50.40
44751;BME280;30477;48.224;11.470;2023-04-29T12:27:08;95855.63;;;18.63;50.41
44751;BME280;30477;48.224;11.470;2023-04-29T12:29:35;95854.53;;;18.51;50.04
44751;BME280;30477;48.224;11.470;2023-04-29T12:32:01;95848.81;;;18.34;50.04
44751;BME280;30477;48.224;11.470;2023-04-29T12:34:28;95855.03;;;18.26;49.94
44751;BME280;30477;48.224;11.470;2023-04-29T12:37:00;95859.78;;;18.16;49.84
44751;BME280;30477;48.224;11.470;2023-04-29T12:39:26;95855.78;;;18.20;50.32
44751;BME280;30477;48.224;11.470;2023-04-29T12:41:59;95862.69;;;18.28;50.06
44751;BME280;30477;48.224;11.470;2023-04-29T12:44:25;95869.16;;;18.32;49.08
44751;BME280;30477;48.224;11.470;2023-04-29T12:46:50;95870.38;;;18.30;48.61
44751;BME280;30477;48.224;11.470;2023-04-29T12:49:23;95867.94;;;18.28;49.06
44751;BME280;30477;48.224;11.470;2023-04-29T12:51:49;95860.47;;;18.25;49.05
44751;BME280;30477;48.224;11.470;2023-04-29T12:54:14;95859.78;;;18.16;48.39
44751;BME280;30477;48.224;11.470;2023-04-29T12:56:40;95856.59;;;18.14;48.26
44751;BME280;30477;48.224;11.470;2023-04-29T12:59:09;95862.81;;;18.13;48.37
44751;BME280;30477;48.224;11.470;2023-04-29T13:01:35;95865.56;;;18.05;48.13
44751;BME280;30477;48.224;11.470;2023-04-29T13:04:00;95862.72;;;18.00;48.01
44751;BME280;30477;48.224;11.470;2023-04-29T13:06:26;95858.91;;;18.02;48.09
44751;BME280;30477;48.224;11.470;2023-04-29T13:08:51;95859.72;;;18.03;48.13
44751;BME280;30477;48.224;11.470;2023-04-29T13:11:16;95862.91;;;17.98;48.24
44751;BME280;30477;48.224;11.470;2023-04-29T13:13:42;95862.47;;;17.95;47.93
44751;BME280;30477;48.224;11.470;2023-04-29T13:16:07;95857.28;;;18.01;49.09
44751;BME280;30477;48.224;11.470;2023-04-29T13:18:33;95858.97;;;18.09;48.79
44751;BME280;30477;48.224;11.470;2023-04-29T13:20:59;95863.22;;;18.10;48.85